createdAt,value
2019-05-17T00:02:47.362Z,12.78
2019-05-17T00:07:52.885Z,12.74
2019-05-17T00:12:58.478Z,12.75
2019-05-17T00:18:06.450Z,12.70
2019-05-17T00:23:11.047Z,12.67
2019-05-17T00:28:16.573Z,12.69
2019-05-17T00:33:22.200Z,12.69
2019-05-17T00:38:27.659Z,12.61
2019-05-17T00:43:33.102Z,12.58
2019-05-17T00:48:38.520Z,12.50
2019-05-17T00:53:44.027Z,12.46
2019-05-17T00:58:49.491Z,12.46
2019-05-17T01:03:57.001Z,12.46
2019-05-17T01:09:04.200Z,12.48
2019-05-17T01:14:09.292Z,12.55
2019-05-17T01:19:16.408Z,12.58
2019-05-17T01:24:21.981Z,12.55
2019-05-17T01:29:27.404Z,12.55
2019-05-17T01:34:32.807Z,12.61
2019-05-17T01:39:38.374Z,12.65
2019-05-17T01:44:43.900Z,12.64
2019-05-17T01:49:49.307Z,12.59
2019-05-17T01:54:57.013Z,12.54
2019-05-17T02:00:01.857Z,12.50
2019-05-17T02:05:07.797Z,12.50
2019-05-17T02:10:13.786Z,12.53
2019-05-17T02:15:19.217Z,12.49
2019-05-17T02:20:24.692Z,12.48
2019-05-17T02:25:30.146Z,12.49
2019-05-17T02:30:35.569Z,12.46
2019-05-17T02:35:42.923Z,12.46
2019-05-17T02:40:48.151Z,12.46
2019-05-17T02:45:53.628Z,12.50
2019-05-17T02:50:59.069Z,12.53
2019-05-17T02:56:04.575Z,12.53
2019-05-17T03:01:12.690Z,12.49
2019-05-17T03:06:17.247Z,12.42
2019-05-17T03:11:22.907Z,12.42
2019-05-17T03:16:28.535Z,12.37
2019-05-17T03:21:34.122Z,12.36
2019-05-17T03:26:42.697Z,12.36
2019-05-17T03:31:57.471Z,12.38
2019-05-17T03:36:56.572Z,12.41
2019-05-17T03:42:02.611Z,12.43
2019-05-17T03:47:08.317Z,12.46
2019-05-17T03:52:13.862Z,12.43
2019-05-17T03:57:19.452Z,12.43
2019-05-17T04:02:24.895Z,12.43
2019-05-17T04:07:32.855Z,12.44
2019-05-17T04:12:37.552Z,12.45
2019-05-17T04:17:44.129Z,12.46
2019-05-17T04:22:52.562Z,12.50
2019-05-17T04:27:57.259Z,12.51
2019-05-17T04:33:03.708Z,12.56
2019-05-17T04:38:12.606Z,12.68
2019-05-17T04:43:16.686Z,12.67
2019-05-17T04:48:23.847Z,12.65
2019-05-17T04:53:32.492Z,12.71
2019-05-17T04:58:36.478Z,12.74
2019-05-17T05:03:42.973Z,12.79
2019-05-17T05:08:48.679Z,12.78
2019-05-17T05:13:54.105Z,12.79
2019-05-17T05:19:02.631Z,12.77
2019-05-17T05:24:06.804Z,12.81
2019-05-17T05:29:12.892Z,12.86
2019-05-17T05:34:18.385Z,12.96
2019-05-17T05:39:23.823Z,13.02
2019-05-17T05:44:29.322Z,13.01
2019-05-17T05:49:34.864Z,12.99
2019-05-17T05:54:41.326Z,12.91
2019-05-17T05:59:46.851Z,12.96
2019-05-17T06:04:52.395Z,13.05
2019-05-17T06:09:57.844Z,13.18
2019-05-17T06:15:03.340Z,13.33
2019-05-17T06:20:08.934Z,13.37
2019-05-17T06:25:15.611Z,13.44
2019-05-17T06:30:21.990Z,13.49
2019-05-17T06:35:27.592Z,13.60
2019-05-17T06:40:33.107Z,13.65
2019-05-17T06:45:38.618Z,13.71
2019-05-17T06:50:44.132Z,13.72
2019-05-17T06:55:49.558Z,13.73
2019-05-17T07:00:54.999Z,13.89
2019-05-17T07:06:02.281Z,14.08
2019-05-17T07:11:09.772Z,14.14
2019-05-17T07:16:15.034Z,14.08
2019-05-17T07:21:20.681Z,13.97
2019-05-17T07:26:26.301Z,13.94
2019-05-17T07:31:31.733Z,13.98
2019-05-17T07:36:39.575Z,14.03
2019-05-17T07:41:44.375Z,14.05
2019-05-17T07:46:51.828Z,14.08
2019-05-17T07:51:57.086Z,14.07
2019-05-17T07:57:02.511Z,14.00
2019-05-17T08:02:10.452Z,13.99
2019-05-17T08:07:15.207Z,13.93
2019-05-17T08:12:20.775Z,14.07
2019-05-17T08:17:26.179Z,14.21
2019-05-17T08:22:31.643Z,14.39
2019-05-17T08:27:37.226Z,14.48
2019-05-17T08:32:42.672Z,14.46
2019-05-17T08:37:49.870Z,14.46
2019-05-17T08:42:55.311Z,14.54
2019-05-17T08:48:00.757Z,14.83
2019-05-17T08:53:06.338Z,15.20
2019-05-17T08:58:11.847Z,15.54
2019-05-17T09:03:19.451Z,15.57
2019-05-17T09:08:24.627Z,15.55
2019-05-17T09:13:30.257Z,15.62
2019-05-17T09:18:35.751Z,15.99
2019-05-17T09:23:41.346Z,16.35
2019-05-17T09:28:46.786Z,16.78
2019-05-17T09:33:52.361Z,17.02
2019-05-17T09:38:59.917Z,17.17
2019-05-17T09:44:12.922Z,16.97
2019-05-17T09:49:12.224Z,16.78
2019-05-17T09:54:19.476Z,16.71
2019-05-17T09:59:24.942Z,16.53
2019-05-17T10:04:30.539Z,16.25
2019-05-17T10:09:36.016Z,16.20
2019-05-17T10:14:41.501Z,16.16
2019-05-17T10:19:46.946Z,16.10
2019-05-17T10:24:52.506Z,15.97
2019-05-17T10:29:59.509Z,15.81
2019-05-17T10:35:05.060Z,15.85
2019-05-17T10:40:10.906Z,15.99
2019-05-17T10:45:17.222Z,16.09
2019-05-17T10:50:23.225Z,16.21
2019-05-17T10:55:30.254Z,16.18
2019-05-17T11:00:35.887Z,16.30
2019-05-17T11:05:41.339Z,16.78
2019-05-17T11:10:46.783Z,17.31
2019-05-17T11:15:52.228Z,17.46
2019-05-17T11:20:57.735Z,17.50
2019-05-17T11:26:03.211Z,17.68
2019-05-17T11:31:08.773Z,17.84
2019-05-17T11:36:14.406Z,17.73
2019-05-17T11:41:21.779Z,17.80
2019-05-17T11:46:35.851Z,18.06
2019-05-17T11:51:34.179Z,18.20
2019-05-17T11:56:39.608Z,18.36
2019-05-17T12:01:45.067Z,18.67
2019-05-17T12:06:50.659Z,18.99
2019-05-17T12:11:56.135Z,19.14
2019-05-17T12:17:01.596Z,18.94
2019-05-17T12:22:07.054Z,18.84
2019-05-17T12:27:12.499Z,18.86
2019-05-17T12:32:17.923Z,18.93
2019-05-17T12:37:23.506Z,19.01
2019-05-17T12:42:29.009Z,19.28
2019-05-17T12:47:34.687Z,19.36
2019-05-17T12:52:41.109Z,19.39
2019-05-17T12:57:46.535Z,19.41
2019-05-17T13:02:52.028Z,19.54
2019-05-17T13:07:57.612Z,20.07
2019-05-17T13:13:03.129Z,20.69
2019-05-17T13:18:08.769Z,21.17
2019-05-17T13:23:14.241Z,21.58
2019-05-17T13:28:19.753Z,21.59
2019-05-17T13:33:29.000Z,21.54
2019-05-17T13:38:32.481Z,21.47
2019-05-17T13:43:37.966Z,21.76
2019-05-17T13:48:43.432Z,22.12
2019-05-17T13:53:48.921Z,22.34
2019-05-17T13:58:54.376Z,22.44
2019-05-17T14:03:59.817Z,22.54
2019-05-17T14:09:07.267Z,22.52
2019-05-17T14:14:13.093Z,22.42
2019-05-17T14:19:18.590Z,22.14
2019-05-17T14:24:24.048Z,22.14
2019-05-17T14:29:29.590Z,22.16
2019-05-17T14:34:35.452Z,22.03
2019-05-17T14:39:41.082Z,21.88
2019-05-17T14:44:46.581Z,21.62
2019-05-17T14:49:52.149Z,21.52
2019-05-17T14:54:57.736Z,21.54
2019-05-17T15:00:03.332Z,21.46
2019-05-17T15:05:08.843Z,21.23
2019-05-17T15:10:14.290Z,21.17
2019-05-17T15:15:25.665Z,21.30
2019-05-17T15:20:26.899Z,21.58
2019-05-17T15:25:32.459Z,21.66
2019-05-17T15:30:37.912Z,21.66
2019-05-17T15:35:43.371Z,21.57
2019-05-17T15:40:48.866Z,21.46
2019-05-17T15:45:54.793Z,21.50
2019-05-17T15:51:00.336Z,21.60
2019-05-17T15:56:05.819Z,21.82
2019-05-17T16:01:11.419Z,21.84
2019-05-17T16:06:16.897Z,21.82
2019-05-17T16:11:22.297Z,21.82
2019-05-17T16:16:28.009Z,21.61
2019-05-17T16:21:33.618Z,21.23
2019-05-17T16:26:39.123Z,20.87
2019-05-17T16:31:44.709Z,20.60
2019-05-17T16:36:50.248Z,20.43
2019-05-17T16:41:55.922Z,20.28
2019-05-17T16:47:01.611Z,20.18
2019-05-17T16:52:07.163Z,20.12
2019-05-17T16:57:12.694Z,20.06
2019-05-17T17:02:18.140Z,20.00
2019-05-17T17:07:23.580Z,19.96
2019-05-17T17:12:29.079Z,19.92
2019-05-17T17:17:34.627Z,19.87
2019-05-17T17:22:40.263Z,19.73
2019-05-17T17:27:45.784Z,19.59
2019-05-17T17:32:51.475Z,19.49
2019-05-17T17:37:57.313Z,19.41
2019-05-17T17:43:02.727Z,19.29
2019-05-17T17:48:08.178Z,19.16
2019-05-17T17:53:13.722Z,19.05
2019-05-17T17:58:19.422Z,18.95
2019-05-17T18:03:25.046Z,18.90
2019-05-17T18:08:34.433Z,18.81
2019-05-17T18:13:37.919Z,18.79
2019-05-17T18:18:43.397Z,18.77
2019-05-17T18:23:48.909Z,18.76
2019-05-17T18:28:54.398Z,18.73
2019-05-17T18:33:59.816Z,18.69
2019-05-17T18:39:06.550Z,18.65
2019-05-17T18:44:11.990Z,18.58
2019-05-17T18:49:17.479Z,18.52
2019-05-17T18:54:23.078Z,18.47
2019-05-17T18:59:28.658Z,18.39
2019-05-17T19:04:34.076Z,18.33
2019-05-17T19:09:39.529Z,18.26
2019-05-17T19:14:44.982Z,18.21
2019-05-17T19:19:50.447Z,18.19
2019-05-17T19:24:55.913Z,18.13
2019-05-17T19:30:01.344Z,18.06
2019-05-17T19:35:06.853Z,18.03
2019-05-17T19:40:12.286Z,17.97
2019-05-17T19:45:17.776Z,17.92
2019-05-17T19:50:23.240Z,17.87
2019-05-17T19:55:28.848Z,17.81
2019-05-17T20:00:34.243Z,17.76
2019-05-17T20:05:39.692Z,17.72
2019-05-17T20:10:45.069Z,17.67
2019-05-17T20:15:50.537Z,17.61
2019-05-17T20:20:55.968Z,17.53
2019-05-17T20:26:01.451Z,17.51
2019-05-17T20:31:06.881Z,17.48
2019-05-17T20:36:12.299Z,17.47
2019-05-17T20:41:17.767Z,17.45
2019-05-17T20:46:23.306Z,17.41
2019-05-17T20:51:28.787Z,17.36
2019-05-17T20:56:34.316Z,17.27
2019-05-17T21:01:39.773Z,17.16
2019-05-17T21:06:45.201Z,17.02
2019-05-17T21:11:50.623Z,16.91
2019-05-17T21:16:56.151Z,16.81
2019-05-17T21:22:01.650Z,16.71
2019-05-17T21:27:07.162Z,16.62
2019-05-17T21:32:12.597Z,16.49
2019-05-17T21:37:18.114Z,16.35
2019-05-17T21:42:23.574Z,16.18
2019-05-17T21:47:29.002Z,16.01
2019-05-17T21:52:35.545Z,15.87
2019-05-17T21:57:41.000Z,15.82
2019-05-17T22:02:46.472Z,15.82
2019-05-17T22:07:51.979Z,15.89
2019-05-17T22:12:57.398Z,15.94
2019-05-17T22:18:02.803Z,15.94
2019-05-17T22:23:08.235Z,15.83
2019-05-17T22:28:13.746Z,15.68
2019-05-17T22:33:19.153Z,15.54
2019-05-17T22:38:24.600Z,15.44
2019-05-17T22:43:30.043Z,15.41
2019-05-17T22:48:35.453Z,15.42
2019-05-17T22:53:40.902Z,15.45
2019-05-17T22:58:46.332Z,15.45
2019-05-17T23:03:51.805Z,15.39
2019-05-17T23:08:57.292Z,15.32
2019-05-17T23:14:02.888Z,15.22
2019-05-17T23:19:09.124Z,15.17
2019-05-17T23:24:14.565Z,15.22
2019-05-17T23:29:20.012Z,15.27
2019-05-17T23:34:25.428Z,15.36
2019-05-17T23:39:30.873Z,15.43
2019-05-17T23:44:36.284Z,15.50
2019-05-17T23:49:41.767Z,15.54
2019-05-17T23:54:47.208Z,15.55
2019-05-17T23:59:52.652Z,15.47
